Time;durP1;ratioP1;P1;durP2;ratioP2;P2;SDS_P1;SDS_P2;PMS_P1;PMS_P2;Temp;Humidity;BMP_temperature;BMP_pressure;BME280_temperature;BME280_humidity;BME280_pressure;Samples;Min_cycle;Max_cycle;Signal;HPM_P1;HPM_P2
2022/04/08 00:00:44;;;;;;;11.35;2.25;;;;;;;9.28;62.60;97995.63;4806688;28;124151;-83
2022/04/08 00:03:09;;;;;;;12.40;2.30;;;;;;;9.37;62.09;98002.78;4804445;28;120509;-84
2022/04/08 00:05:35;;;;;;;9.85;2.17;;;;;;;9.43;61.81;98014.44;4834432;28;120441;-84
2022/04/08 00:08:00;;;;;;;13.43;2.15;;;;;;;9.40;61.38;98008.00;4812864;28;122485;-83
2022/04/08 00:10:26;;;;;;;13.13;2.40;;;;;;;9.50;60.94;98013.91;4816450;28;121081;-84
2022/04/08 00:12:51;;;;;;;11.35;2.75;;;;;;;9.53;60.90;98015.63;4810971;28;120302;-84
2022/04/08 00:15:20;;;;;;;11.98;2.00;;;;;;;9.50;61.03;98009.19;4822199;28;122681;-83
2022/04/08 00:17:45;;;;;;;7.45;2.10;;;;;;;9.48;61.52;98011.69;4843794;28;119641;-84
2022/04/08 00:20:11;;;;;;;14.90;2.20;;;;;;;9.57;61.78;98026.31;4804276;28;123891;-83
2022/04/08 00:22:42;;;;;;;9.23;1.80;;;;;;;9.66;63.07;98034.94;4828771;28;120500;-83
2022/04/08 00:25:11;;;;;;;9.88;2.53;;;;;;;9.64;63.23;98023.03;4802222;28;121470;-84
2022/04/08 00:27:38;;;;;;;11.95;2.20;;;;;;;9.78;62.36;98052.78;4831507;28;120296;-83
2022/04/08 00:30:05;;;;;;;14.48;3.53;;;;;;;9.77;61.70;98053.31;4810935;28;120267;-82
2022/04/08 00:32:31;;;;;;;14.82;2.50;;;;;;;9.76;61.83;98060.03;4823679;28;122097;-84
2022/04/08 00:34:58;;;;;;;13.07;2.30;;;;;;;9.75;61.86;98067.50;4801581;28;123273;-83
2022/04/08 00:37:23;;;;;;;15.73;2.90;;;;;;;9.72;61.62;98060.31;4805085;28;119712;-83
2022/04/08 00:39:49;;;;;;;15.20;2.97;;;;;;;9.61;61.83;98065.81;4823083;28;122917;-84
2022/04/08 00:42:15;;;;;;;14.73;3.13;;;;;;;9.65;60.97;98077.25;4829568;28;120453;-83
2022/04/08 00:44:41;;;;;;;15.73;3.15;;;;;;;9.62;61.23;98070.03;4803369;28;121724;-83
2022/04/08 00:47:06;;;;;;;19.20;3.53;;;;;;;9.62;60.53;98081.00;4825822;28;119919;-83
2022/04/08 00:49:36;;;;;;;18.75;3.33;;;;;;;9.60;59.71;98085.50;4832526;28;119871;-83
2022/04/08 00:52:02;;;;;;;18.45;3.70;;;;;;;9.58;59.74;98105.16;4798003;28;120952;-83
2022/04/08 00:54:30;;;;;;;18.02;4.50;;;;;;;9.57;59.36;98103.66;4799385;28;122791;-82
2022/04/08 00:56:56;;;;;;;20.80;3.60;;;;;;;9.53;58.87;98109.41;4827840;28;119952;-83
2022/04/08 00:59:24;;;;;;;16.95;3.88;;;;;;;9.53;59.06;98123.09;4805390;28;121741;-83
2022/04/08 01:01:49;;;;;;;17.77;3.60;;;;;;;9.51;58.71;98127.59;4819030;28;121368;-83
2022/04/08 01:04:15;;;;;;;20.15;4.40;;;;;;;9.48;59.49;98131.34;4819287;28;121873;-83
2022/04/08 01:06:43;;;;;;;21.17;3.92;;;;;;;9.48;58.92;98129.34;4815811;28;121350;-84
2022/04/08 01:09:10;;;;;;;20.75;3.92;;;;;;;9.46;58.90;98144.75;4823901;28;119982;-83
2022/04/08 01:11:40;;;;;;;18.92;3.47;;;;;;;9.42;59.79;98141.53;4828946;28;119792;-83
2022/04/08 01:14:10;;;;;;;23.48;4.07;;;;;;;9.38;58.71;98144.53;4818901;28;123243;-83
2022/04/08 01:16:37;;;;;;;18.45;3.88;;;;;;;9.43;58.46;98164.91;4851071;28;120224;-83
2022/04/08 01:19:03;;;;;;;20.60;3.97;;;;;;;9.35;57.31;98161.22;4833096;28;120253;-83
2022/04/08 01:21:29;;;;;;;23.48;4.07;;;;;;;9.31;57.23;98171.66;4840626;28;120588;-83
2022/04/08 01:23:56;;;;;;;22.77;4.05;;;;;;;9.32;57.20;98186.84;4802300;28;121910;-82
2022/04/08 01:26:22;;;;;;;21.25;3.88;;;;;;;9.26;56.14;98188.84;4833332;28;119806;-83
2022/04/08 01:28:48;;;;;;;19.90;3.63;;;;;;;9.22;56.26;98191.81;4804921;28;119768;-83
2022/04/08 01:31:15;;;;;;;20.17;4.03;;;;;;;9.15;57.44;98195.06;4803575;28;122192;-83
2022/04/08 01:33:41;;;;;;;15.13;3.33;;;;;;;9.19;55.89;98212.72;4831747;28;123099;-83
2022/04/08 01:36:07;;;;;;;19.90;3.22;;;;;;;9.20;56.16;98219.66;4835035;28;120201;-84
2022/04/08 01:38:33;;;;;;;18.98;3.63;;;;;;;9.11;55.78;98221.94;4819734;28;122129;-84
2022/04/08 01:40:58;;;;;;;21.85;3.75;;;;;;;9.12;55.69;98229.63;4837924;28;120020;-83
2022/04/08 01:43:24;;;;;;;16.30;3.03;;;;;;;9.12;55.25;98234.34;4819264;28;122193;-83
2022/04/08 01:45:50;;;;;;;18.52;3.78;;;;;;;9.05;56.12;98237.59;4834841;28;119786;-83
2022/04/08 01:48:16;;;;;;;19.13;3.47;;;;;;;9.12;55.35;98250.75;4802060;28;119757;-82
2022/04/08 01:50:41;;;;;;;19.90;3.63;;;;;;;9.06;54.89;98248.03;4804205;28;123140;-83
2022/04/08 01:53:07;;;;;;;17.15;3.97;;;;;;;9.12;55.26;98267.91;4799592;28;123670;-83
2022/04/08 01:55:32;;;;;;;21.63;3.95;;;;;;;9.03;55.46;98249.03;4856659;28;119772;-83
2022/04/08 01:57:58;;;;;;;26.05;4.05;;;;;;;9.10;54.34;98259.47;4819969;28;122081;-82
2022/04/08 02:00:23;;;;;;;22.90;3.92;;;;;;;9.13;54.28;98269.41;4818478;28;123364;-83
2022/04/08 02:02:49;;;;;;;20.42;3.70;;;;;;;9.15;53.73;98277.84;4808082;28;119761;-83
2022/04/08 02:05:14;;;;;;;24.77;4.00;;;;;;;9.14;53.98;98292.03;4805440;28;123384;-83
2022/04/08 02:07:40;;;;;;;20.85;3.85;;;;;;;9.07;53.49;98274.13;4835697;28;119849;-83
2022/04/08 02:10:06;;;;;;;18.77;3.80;;;;;;;9.10;53.69;98300.47;4819430;28;122851;-83
2022/04/08 02:12:32;;;;;;;22.92;4.07;;;;;;;9.03;52.59;98292.78;4819982;28;120122;-83
2022/04/08 02:14:58;;;;;;;22.98;3.75;;;;;;;9.07;53.48;98298.75;4835109;28;119987;-83
2022/04/08 02:17:25;;;;;;;19.05;3.65;;;;;;;8.99;52.69;98297.75;4820144;28;122274;-83
2022/04/08 02:19:55;;;;;;;20.02;3.78;;;;;;;9.07;53.47;98315.16;4837048;28;122688;-83
2022/04/08 02:22:23;;;;;;;17.35;3.38;;;;;;;9.05;53.30;98317.63;4838401;28;120199;-83
2022/04/08 02:24:50;;;;;;;22.15;4.03;;;;;;;9.07;53.62;98323.34;4825851;28;120500;-82
2022/04/08 02:27:16;;;;;;;20.10;4.05;;;;;;;9.01;52.64;98322.63;4820755;28;119727;-83
2022/04/08 02:29:42;;;;;;;20.25;3.95;;;;;;;8.98;52.53;98318.13;4806199;28;120247;-83
2022/04/08 02:32:10;;;;;;;22.48;4.35;;;;;;;9.02;52.47;98339.75;4816733;28;122571;-82
2022/04/08 02:34:39;;;;;;;17.65;3.53;;;;;;;9.00;51.81;98332.06;4836147;28;120063;-83
2022/04/08 02:37:05;;;;;;;20.70;3.92;;;;;;;9.04;52.40;98340.75;4820777;28;120151;-83
2022/04/08 02:39:31;;;;;;;15.15;3.53;;;;;;;9.05;54.31;98344.97;4819957;28;123579;-83
2022/04/08 02:41:57;;;;;;;17.00;3.45;;;;;;;9.08;52.91;98348.72;4833586;28;119777;-83
2022/04/08 02:44:25;;;;;;;19.02;3.88;;;;;;;9.04;52.69;98350.94;4822063;28;121990;-83
2022/04/08 02:46:51;;;;;;;19.63;3.70;;;;;;;9.06;51.71;98356.66;4822261;28;122727;-82
2022/04/08 02:49:17;;;;;;;19.10;4.10;;;;;;;9.04;53.28;98346.22;4822490;28;121982;-83
2022/04/08 02:51:42;;;;;;;17.85;3.53;;;;;;;9.11;53.18;98362.13;4836335;28;122852;-81
2022/04/08 02:54:08;;;;;;;21.77;3.72;;;;;;;9.12;53.44;98360.88;4822310;28;120252;-82
2022/04/08 02:56:34;;;;;;;23.13;3.83;;;;;;;9.10;53.03;98366.13;4823490;28;122171;-83
2022/04/08 02:59:02;;;;;;;19.77;3.88;;;;;;;9.14;53.24;98365.88;4854674;28;119701;-83
2022/04/08 03:01:27;;;;;;;20.00;3.45;;;;;;;9.07;52.87;98363.63;4837306;28;120717;-82
2022/04/08 03:03:53;;;;;;;22.73;3.80;;;;;;;9.07;52.45;98369.84;4837454;28;122396;-83
2022/04/08 03:06:19;;;;;;;22.33;3.92;;;;;;;9.14;53.38;98380.28;4851793;28;121024;-83
2022/04/08 03:08:44;;;;;;;20.85;3.70;;;;;;;9.11;54.25;98369.59;4825474;28;120197;-83
2022/04/08 03:11:10;;;;;;;15.73;3.53;;;;;;;9.13;53.76;98381.53;4836110;28;121088;-82
2022/04/08 03:13:36;;;;;;;23.08;3.78;;;;;;;9.15;52.53;98376.31;4820068;28;120895;-83
2022/04/08 03:16:02;;;;;;;17.30;3.40;;;;;;;9.20;51.61;98391.97;4819730;28;121916;-82
2022/04/08 03:18:27;;;;;;;16.83;3.50;;;;;;;9.12;51.27;98380.03;4820239;28;122752;-83
2022/04/08 03:20:53;;;;;;;13.43;2.70;;;;;;;9.13;51.35;98381.53;4836167;28;120821;-83
2022/04/08 03:23:19;;;;;;;17.63;3.97;;;;;;;9.17;51.60;98394.94;4822945;28;122014;-82
2022/04/08 03:25:45;;;;;;;22.40;4.30;;;;;;;9.15;51.38;98400.91;4836910;28;122572;-83
2022/04/08 03:28:11;;;;;;;17.63;3.78;;;;;;;9.17;50.71;98395.69;4819813;28;121445;-83
2022/04/08 03:30:37;;;;;;;16.15;3.75;;;;;;;9.18;50.87;98399.91;4839899;28;119923;-83
2022/04/08 03:33:03;;;;;;;19.25;3.42;;;;;;;9.18;50.76;98402.66;4821698;28;120650;-83
2022/04/08 03:35:29;;;;;;;19.58;3.47;;;;;;;9.12;51.41;98396.44;4820615;28;119611;-83
2022/04/08 03:37:54;;;;;;;18.55;3.95;;;;;;;9.19;52.79;98404.16;4836919;28;122924;-82
2022/04/08 03:40:20;;;;;;;16.70;3.83;;;;;;;9.24;53.00;98410.88;4839195;28;119944;-83
2022/04/08 03:42:45;;;;;;;21.85;4.38;;;;;;;9.30;52.10;98421.84;4835266;28;120923;-83
2022/04/08 03:45:13;;;;;;;22.33;3.88;;;;;;;9.30;51.48;98421.84;4804702;28;122958;-83
2022/04/08 03:47:39;;;;;;;19.42;3.83;;;;;;;9.23;52.45;98421.09;4853931;28;120938;-82
2022/04/08 03:50:05;;;;;;;16.63;3.40;;;;;;;9.27;53.62;98417.34;4860025;28;121275;-82
2022/04/08 03:52:32;;;;;;;13.95;3.15;;;;;;;9.24;51.17;98416.38;4805919;28;121900;-82
2022/04/08 03:54:59;;;;;;;19.35;3.22;;;;;;;9.22;50.65;98418.81;4852487;28;119415;-83
2022/04/08 03:57:26;;;;;;;15.13;3.90;;;;;;;9.25;50.17;98434.25;4818578;28;122657;-83
2022/04/08 03:59:51;;;;;;;17.85;3.72;;;;;;;9.24;50.65;98430.03;4804594;28;119758;-82
2022/04/08 04:02:17;;;;;;;17.00;3.78;;;;;;;9.18;49.47;98419.06;4821711;28;121556;-82
2022/04/08 04:04:42;;;;;;;16.35;3.38;;;;;;;9.22;49.34;98438.72;4819852;28;122611;-83
2022/04/08 04:07:11;;;;;;;15.20;2.95;;;;;;;9.14;50.36;98417.81;4820686;28;120049;-83
2022/04/08 04:09:37;;;;;;;17.63;3.70;;;;;;;9.15;49.01;98422.78;4818721;28;121780;-82
2022/04/08 04:12:03;;;;;;;20.83;3.92;;;;;;;9.18;51.24;98430.00;4824500;28;123110;-82
2022/04/08 04:14:28;;;;;;;19.48;3.03;;;;;;;9.26;51.37;98435.00;4836065;28;120036;-82
2022/04/08 04:16:54;;;;;;;19.00;3.90;;;;;;;9.30;51.50;98438.25;4822987;28;119714;-82
2022/04/08 04:19:19;;;;;;;18.63;3.78;;;;;;;9.35;50.52;98440.22;4836102;28;120634;-82
2022/04/08 04:21:47;;;;;;;19.92;3.55;;;;;;;9.34;52.79;98430.53;4836679;28;120112;-83
2022/04/08 04:24:13;;;;;;;19.48;3.63;;;;;;;9.38;53.03;98436.50;4836643;28;123049;-83
2022/04/08 04:26:41;;;;;;;20.85;3.53;;;;;;;9.46;51.57;98442.97;4832413;28;120277;-83
2022/04/08 04:29:06;;;;;;;18.77;3.28;;;;;;;9.53;53.43;98450.72;4805844;28;122576;-82
2022/04/08 04:31:32;;;;;;;19.20;3.20;;;;;;;9.64;54.00;98464.38;4823505;28;120990;-82
2022/04/08 04:33:58;;;;;;;16.98;3.17;;;;;;;9.63;52.33;98473.84;4858045;28;121839;-82
2022/04/08 04:36:23;;;;;;;16.90;3.40;;;;;;;9.72;51.84;98476.34;4821149;28;121225;-81
2022/04/08 04:38:49;;;;;;;18.33;4.18;;;;;;;9.69;53.58;98463.63;4836376;28;119808;-82
2022/04/08 04:41:15;;;;;;;19.42;3.83;;;;;;;9.70;54.84;98481.56;4818542;28;121620;-82
2022/04/08 04:43:41;;;;;;;19.33;3.88;;;;;;;9.69;53.83;98474.59;4801742;28;122804;-82
2022/04/08 04:46:07;;;;;;;18.98;3.45;;;;;;;9.73;53.05;98483.31;4815914;28;120589;-81
2022/04/08 04:48:32;;;;;;;18.27;3.17;;;;;;;9.69;53.32;98480.06;4821656;28;121602;-82
2022/04/08 04:50:58;;;;;;;23.85;4.10;;;;;;;9.69;55.17;98488.28;4813535;28;123131;-82
2022/04/08 04:53:24;;;;;;;18.95;3.72;;;;;;;9.67;54.23;98498.22;4803593;28;119861;-82
2022/04/08 04:55:50;;;;;;;17.73;3.90;;;;;;;9.74;54.91;98501.22;4831889;28;122493;-83
2022/04/08 04:58:15;;;;;;;18.33;3.70;;;;;;;9.74;54.51;98506.72;4817913;28;121073;-82
2022/04/08 05:00:41;;;;;;;24.23;4.25;;;;;;;9.77;56.53;98504.97;4817519;28;120777;-83
2022/04/08 05:03:08;;;;;;;15.18;3.53;;;;;;;9.79;55.06;98503.22;4835359;28;120683;-83
2022/04/08 05:05:34;;;;;;;16.75;4.00;;;;;;;9.81;55.19;98500.72;4852979;28;119815;-83
2022/04/08 05:08:04;;;;;;;21.25;3.67;;;;;;;9.83;55.70;98505.72;4819347;28;125736;-82
2022/04/08 05:10:33;;;;;;;23.02;3.88;;;;;;;9.84;55.56;98516.16;4853057;28;120033;-82
2022/04/08 05:12:59;;;;;;;19.98;4.28;;;;;;;9.88;55.81;98504.22;4852840;28;119823;-82
2022/04/08 05:15:26;;;;;;;16.73;3.55;;;;;;;9.88;56.47;98509.69;4813410;28;121803;-82
2022/04/08 05:17:51;;;;;;;24.83;3.90;;;;;;;9.97;57.73;98520.41;4823421;28;124378;-82
2022/04/08 05:20:17;;;;;;;18.35;4.18;;;;;;;10.04;56.58;98511.69;4835291;28;119485;-82
2022/04/08 05:22:42;;;;;;;19.80;3.97;;;;;;;10.09;56.71;98516.41;4819366;28;123297;-82
2022/04/08 05:25:10;;;;;;;26.90;4.75;;;;;;;10.17;54.94;98517.38;4835476;28;120843;-82
2022/04/08 05:27:41;;;;;;;21.90;4.25;;;;;;;10.23;55.17;98509.97;4852683;28;119652;-82
2022/04/08 05:30:08;;;;;;;20.33;3.83;;;;;;;10.31;55.78;98523.88;4828776;28;123332;-81
2022/04/08 05:32:34;;;;;;;17.98;3.80;;;;;;;10.42;54.40;98530.13;4819803;28;119833;-82
2022/04/08 05:34:59;;;;;;;20.48;3.60;;;;;;;10.40;55.72;98549.03;4819922;28;119963;-82
2022/04/08 05:37:25;;;;;;;15.30;3.58;;;;;;;10.44;54.87;98570.72;4834905;28;122732;-82
2022/04/08 05:39:53;;;;;;;18.02;3.28;;;;;;;10.32;54.21;98583.66;4822624;28;121489;-82
2022/04/08 05:42:19;;;;;;;17.35;3.13;;;;;;;10.10;55.60;98569.94;4834292;28;120198;-82
2022/04/08 05:44:45;;;;;;;11.50;2.60;;;;;;;10.03;56.03;98570.44;4834509;28;119710;-82
2022/04/08 05:47:10;;;;;;;10.00;2.28;;;;;;;9.91;56.53;98572.41;4819966;28;120228;-82
2022/04/08 05:49:36;;;;;;;11.82;2.50;;;;;;;9.75;56.81;98570.41;4820525;28;123434;-82
2022/04/08 05:52:02;;;;;;;12.15;2.20;;;;;;;9.64;56.63;98579.34;4821165;28;119986;-83
2022/04/08 05:54:28;;;;;;;10.68;2.42;;;;;;;9.59;57.55;98582.06;4825164;28;123149;-82
2022/04/08 05:56:53;;;;;;;12.65;3.13;;;;;;;9.46;58.20;98574.31;4831076;28;119758;-82
2022/04/08 05:59:19;;;;;;;16.73;3.10;;;;;;;9.57;59.54;98579.81;4812380;28;120194;-81
2022/04/08 06:01:45;;;;;;;17.45;3.20;;;;;;;9.60;60.34;98578.84;4818732;28;120410;-82
2022/04/08 06:04:13;;;;;;;18.27;3.38;;;;;;;9.69;60.60;98581.34;4819907;28;120294;-82
2022/04/08 06:06:43;;;;;;;18.42;3.55;;;;;;;9.70;59.84;98577.38;4857752;28;120959;-82
2022/04/08 06:09:08;;;;;;;18.00;3.42;;;;;;;9.74;60.38;98572.41;4849280;28;120347;-83
2022/04/08 06:11:34;;;;;;;17.30;3.55;;;;;;;9.88;59.62;98587.09;4833976;28;119997;-83
2022/04/08 06:14:00;;;;;;;18.73;3.53;;;;;;;9.94;58.19;98592.59;4817605;28;122224;-82
2022/04/08 06:16:25;;;;;;;18.52;3.42;;;;;;;9.92;57.59;98592.31;4833494;28;121459;-82
2022/04/08 06:18:51;;;;;;;16.67;3.47;;;;;;;9.93;58.41;98577.38;4819203;28;120048;-82
2022/04/08 06:21:17;;;;;;;14.30;2.72;;;;;;;10.02;59.14;98580.66;4837514;28;121667;-81
2022/04/08 06:23:42;;;;;;;13.80;2.55;;;;;;;10.21;57.90;98593.91;4818262;28;120316;-81
2022/04/08 06:26:09;;;;;;;15.88;2.58;;;;;;;10.30;59.46;98583.44;4851253;28;121078;-82
2022/04/08 06:28:34;;;;;;;15.77;3.70;;;;;;;10.52;58.67;98595.63;4857321;28;119996;-82
2022/04/08 06:31:00;;;;;;;20.70;3.88;;;;;;;10.59;56.73;98581.41;4803117;28;120167;-81
2022/04/08 06:33:26;;;;;;;14.05;2.88;;;;;;;10.84;57.43;98588.59;4835038;28;122092;-81
2022/04/08 06:35:51;;;;;;;14.23;3.10;;;;;;;10.89;56.46;98579.63;4820150;28;123513;-81
2022/04/08 06:38:17;;;;;;;18.15;3.22;;;;;;;11.08;56.16;98586.00;4826239;28;119641;-81
2022/04/08 06:40:42;;;;;;;12.75;2.92;;;;;;;11.06;55.32;98585.78;4826842;28;121318;-81
2022/04/08 06:43:08;;;;;;;16.50;3.28;;;;;;;11.04;57.19;98585.53;4832615;28;120221;-81
2022/04/08 06:45:34;;;;;;;17.10;3.67;;;;;;;11.08;56.52;98627.16;4830007;28;120194;-82
2022/04/08 06:48:00;;;;;;;13.80;2.55;;;;;;;10.96;55.10;98647.66;4814275;28;121267;-81
2022/04/08 06:50:26;;;;;;;15.07;2.42;;;;;;;10.73;55.24;98646.19;4829376;28;119938;-80
2022/04/08 06:52:55;;;;;;;14.55;2.60;;;;;;;10.45;58.17;98646.22;4816553;28;122204;-81
2022/04/08 06:55:21;;;;;;;11.25;2.60;;;;;;;10.22;57.87;98629.00;4817296;28;120356;-82
2022/04/08 06:57:46;;;;;;;9.70;2.35;;;;;;;9.98;56.95;98613.03;4831288;28;120046;-81
2022/04/08 07:00:13;;;;;;;10.73;2.20;;;;;;;9.72;58.15;98601.53;4816957;28;122177;-81
2022/04/08 07:02:41;;;;;;;7.57;1.63;;;;;;;9.66;58.85;98615.16;4833584;28;119798;-82
2022/04/08 07:05:08;;;;;;;8.60;1.92;;;;;;;9.58;59.59;98619.63;4829330;28;119632;-80
2022/04/08 07:07:35;;;;;;;10.15;2.20;;;;;;;9.52;60.21;98619.63;4817351;28;122698;-82
2022/04/08 07:10:04;;;;;;;10.68;2.60;;;;;;;9.65;61.04;98623.88;4816161;28;120189;-82
2022/04/08 07:12:29;;;;;;;9.55;2.50;;;;;;;9.73;60.77;98619.44;4816498;28;122161;-82
2022/04/08 07:14:55;;;;;;;10.95;2.40;;;;;;;9.93;60.98;98623.94;4838038;28;122843;-82
2022/04/08 07:17:32;;;;;;;11.13;2.80;;;;;;;10.09;61.57;98612.28;4819492;28;119805;-82
2022/04/08 07:19:58;;;;;;;18.10;3.20;;;;;;;10.27;62.05;98617.31;4814274;28;121994;-81
2022/04/08 07:22:25;;;;;;;13.93;2.60;;;;;;;10.35;60.96;98617.53;4847926;28;119899;-82
2022/04/08 07:24:51;;;;;;;13.30;3.20;;;;;;;10.38;60.09;98614.56;4834452;28;120030;-81
2022/04/08 07:27:18;;;;;;;10.35;2.40;;;;;;;10.41;60.16;98619.06;4807530;28;121917;-81
2022/04/08 07:29:45;;;;;;;16.75;2.88;;;;;;;10.47;60.38;98618.31;4816444;28;121294;-82
2022/04/08 07:32:12;;;;;;;12.50;2.70;;;;;;;10.49;60.79;98611.06;4818957;28;122483;-81
2022/04/08 07:34:38;;;;;;;18.20;3.08;;;;;;;10.59;60.84;98617.03;4820004;28;123545;-84
2022/04/08 07:37:05;;;;;;;18.25;3.80;;;;;;;10.61;60.81;98609.06;4820199;28;119395;-84
2022/04/08 07:39:31;;;;;;;17.45;3.30;;;;;;;10.73;59.69;98635.22;4803289;28;121829;-82
2022/04/08 07:41:57;;;;;;;13.05;3.15;;;;;;;10.71;58.62;98637.72;4816272;28;121322;-82
2022/04/08 07:44:23;;;;;;;18.95;3.22;;;;;;;10.68;58.45;98644.22;4818663;28;119945;-82
2022/04/08 07:46:48;;;;;;;16.30;3.30;;;;;;;10.61;58.74;98644.69;4837707;28;119951;-82
2022/04/08 07:49:14;;;;;;;19.63;3.10;;;;;;;10.50;56.80;98636.50;4817554;28;122121;-82
2022/04/08 07:51:41;;;;;;;18.27;3.20;;;;;;;10.40;57.76;98631.25;4818735;28;122233;-83
2022/04/08 07:54:08;;;;;;;17.30;3.20;;;;;;;10.43;58.47;98646.72;4834026;28;120295;-80
2022/04/08 07:56:35;;;;;;;17.83;3.83;;;;;;;10.43;58.23;98643.22;4815985;28;119690;-82
2022/04/08 07:59:03;;;;;;;20.38;3.70;;;;;;;10.47;58.26;98656.66;4833235;28;120214;-82
2022/04/08 08:01:29;;;;;;;20.25;3.97;;;;;;;10.37;59.49;98632.25;4838160;28;122703;-81
2022/04/08 08:03:55;;;;;;;19.17;3.30;;;;;;;10.50;58.99;98650.19;4836944;28;119560;-82
2022/04/08 08:06:20;;;;;;;14.10;2.92;;;;;;;10.48;59.21;98637.00;4819907;28;120147;-82
2022/04/08 08:08:46;;;;;;;20.88;3.38;;;;;;;10.51;60.48;98640.72;4840751;28;120536;-81
2022/04/08 08:11:15;;;;;;;14.77;3.15;;;;;;;10.69;62.06;98638.22;4803070;28;121734;-82
2022/04/08 08:13:41;;;;;;;17.40;3.80;;;;;;;10.94;62.80;98636.44;4803429;28;122938;-82
2022/04/08 08:16:07;;;;;;;18.58;3.40;;;;;;;11.19;62.64;98648.34;4804076;28;119677;-81
2022/04/08 08:18:34;;;;;;;16.77;3.13;;;;;;;11.42;60.43;98638.06;4804356;28;121947;-81
2022/04/08 08:21:00;;;;;;;19.88;3.55;;;;;;;11.57;59.92;98643.97;4834647;28;120741;-82
2022/04/08 08:23:27;;;;;;;20.00;3.88;;;;;;;11.52;59.08;98619.28;4819175;28;121355;-84
2022/04/08 08:25:55;;;;;;;19.65;3.40;;;;;;;11.64;58.31;98637.97;4817518;28;121843;-80
2022/04/08 08:28:22;;;;;;;23.23;4.35;;;;;;;11.69;59.72;98639.19;4815431;28;122894;-81
2022/04/08 08:30:48;;;;;;;17.38;3.53;;;;;;;11.88;58.50;98628.38;4815122;28;119623;-82
2022/04/08 08:33:13;;;;;;;17.20;3.22;;;;;;;12.12;58.72;98633.22;4814789;28;123245;-83
2022/04/08 08:35:39;;;;;;;15.57;3.10;;;;;;;12.36;56.85;98621.56;4838210;28;119787;-83
2022/04/08 08:38:08;;;;;;;13.70;2.80;;;;;;;12.42;54.85;98633.25;4833168;28;122301;-81
2022/04/08 08:40:34;;;;;;;12.80;2.65;;;;;;;12.55;56.16;98647.16;4808711;28;121322;-81
2022/04/08 08:43:00;;;;;;;14.40;3.10;;;;;;;12.62;55.09;98654.09;4819660;28;119864;-82
2022/04/08 08:45:29;;;;;;;15.02;3.03;;;;;;;12.63;53.61;98648.06;4826147;28;122348;-82
2022/04/08 08:48:00;;;;;;;13.32;3.10;;;;;;;12.62;53.29;98660.34;4800942;28;123958;-82
2022/04/08 08:50:28;;;;;;;15.90;3.13;;;;;;;12.50;51.06;98720.16;4816662;28;120537;-83
2022/04/08 08:52:54;;;;;;;6.70;1.15;;;;;;;12.18;50.46;98700.63;4826554;28;120946;-82
2022/04/08 08:55:20;;;;;;;4.32;1.30;;;;;;;11.69;51.73;98708.56;4830085;28;120154;-83
2022/04/08 08:57:47;;;;;;;4.80;1.10;;;;;;;11.32;53.07;98694.47;4828188;28;119576;-83
2022/04/08 09:00:16;;;;;;;4.65;1.35;;;;;;;10.97;54.13;98693.03;4814740;28;121450;-83
2022/04/08 09:02:43;;;;;;;6.05;1.40;;;;;;;10.74;55.23;98708.00;4812094;28;119941;-83
2022/04/08 09:05:28;;;;;;;5.22;1.35;;;;;;;10.71;56.19;98712.50;4800849;28;121833;-83
2022/04/08 09:07:59;;;;;;;3.83;1.35;;;;;;;10.58;56.28;98709.50;4813687;28;123453;-82
2022/04/08 09:10:35;;;;;;;7.47;1.70;;;;;;;10.63;56.12;98718.97;4818941;28;119551;-83
2022/04/08 09:13:03;;;;;;;6.53;1.80;;;;;;;10.55;56.82;98712.47;4811162;28;122526;-83
2022/04/08 09:15:29;;;;;;;8.07;1.90;;;;;;;10.48;58.42;98696.53;4798542;28;123448;-84
2022/04/08 09:18:14;;;;;;;8.65;2.00;;;;;;;10.61;58.39;98711.22;4844395;28;119657;-83
2022/04/08 09:20:41;;;;;;;12.25;2.28;;;;;;;10.78;59.87;98708.50;4842274;28;119809;-83
2022/04/08 09:23:08;;;;;;;10.00;2.33;;;;;;;10.91;60.01;98689.56;4838655;28;119670;-83
2022/04/08 09:25:35;;;;;;;12.13;1.90;;;;;;;11.08;59.12;98693.00;4825892;28;122015;-83
2022/04/08 09:28:10;;;;;;;11.07;2.30;;;;;;;11.21;59.08;98699.97;4841189;28;120764;-80
2022/04/08 09:30:36;;;;;;;14.35;2.42;;;;;;;11.19;59.93;98680.53;4800900;28;119812;-83
2022/04/08 09:33:13;;;;;;;14.23;2.38;;;;;;;11.28;59.18;98691.22;4827143;28;120206;-82
2022/04/08 09:35:40;;;;;;;14.18;3.10;;;;;;;11.21;57.95;98678.78;4814982;28;122807;-83
2022/04/08 09:38:05;;;;;;;14.30;3.10;;;;;;;11.18;57.21;98690.03;4819603;28;119793;-82
2022/04/08 09:40:37;;;;;;;13.10;3.28;;;;;;;11.11;56.99;98687.75;4801966;28;122721;-83
2022/04/08 09:43:03;;;;;;;16.38;3.22;;;;;;;11.03;57.99;98698.50;4815658;28;120467;-83
2022/04/08 09:45:30;;;;;;;19.58;3.22;;;;;;;10.99;57.82;98742.66;4838019;28;119915;-83
2022/04/08 09:48:03;;;;;;;8.40;1.65;;;;;;;10.75;55.77;98761.59;4810613;28;123218;-83
2022/04/08 09:50:29;;;;;;;10.23;1.45;;;;;;;10.34;55.52;98753.81;4825053;28;119616;-84
2022/04/08 09:52:55;;;;;;;4.60;1.38;;;;;;;9.84;56.99;98737.94;4840775;28;119646;-83
2022/04/08 09:55:22;;;;;;;5.82;1.30;;;;;;;9.50;58.73;98725.34;4823928;28;122882;-84
2022/04/08 09:57:50;;;;;;;7.22;1.75;;;;;;;9.32;60.65;98723.00;4817557;28;120234;-86
2022/04/08 10:00:16;;;;;;;11.48;1.75;;;;;;;9.23;61.90;98721.22;4800501;28;122485;-86
2022/04/08 10:02:45;;;;;;;8.77;1.60;;;;;;;9.21;62.44;98723.66;4801143;28;119826;-86
2022/04/08 10:05:12;;;;;;;7.10;1.70;;;;;;;9.42;62.42;98727.78;4812997;28;121690;-85
2022/04/08 10:07:43;;;;;;;9.25;1.92;;;;;;;9.56;63.02;98728.09;4799770;28;122647;-86
2022/04/08 10:10:13;;;;;;;12.93;2.25;;;;;;;9.64;63.26;98732.63;4843389;28;120448;-85
2022/04/08 10:12:55;;;;;;;9.25;2.13;;;;;;;9.67;62.71;98733.63;4814588;28;121921;-85
2022/04/08 10:15:27;;;;;;;13.70;2.40;;;;;;;9.78;64.27;98726.22;4812388;28;120507;-84
2022/04/08 10:18:03;;;;;;;14.77;2.67;;;;;;;9.84;63.38;98740.66;4820769;28;120590;-85
2022/04/08 10:20:29;;;;;;;9.43;2.50;;;;;;;9.80;63.59;98750.38;4852233;28;119976;-85
2022/04/08 10:23:12;;;;;;;11.50;2.10;;;;;;;9.77;63.85;98741.16;4833449;28;119429;-84
2022/04/08 10:25:43;;;;;;;12.43;2.25;;;;;;;9.72;64.72;98763.78;4832077;28;121630;-86
2022/04/08 10:28:11;;;;;;;8.48;1.83;;;;;;;9.58;63.24;98745.53;4796478;28;122840;-86
2022/04/08 10:30:48;;;;;;;7.35;1.20;;;;;;;9.59;64.20;98747.03;4815386;28;119512;-85
2022/04/08 10:33:24;;;;;;;4.68;1.90;;;;;;;9.61;64.93;98755.50;4816344;28;121740;-85
2022/04/08 10:35:54;;;;;;;4.53;1.48;;;;;;;9.66;64.50;98756.75;4832821;28;123950;-86
2022/04/08 10:38:20;;;;;;;4.80;1.20;;;;;;;9.64;64.63;98748.28;4830304;28;119960;-85
2022/04/08 10:40:54;;;;;;;3.40;1.10;;;;;;;9.64;65.01;98765.47;4819809;29;121735;-87
2022/04/08 10:43:23;;;;;;;3.72;1.40;;;;;;;9.71;66.22;98762.28;4825314;28;122900;-84
2022/04/08 10:45:56;;;;;;;5.55;1.35;;;;;;;9.90;65.81;98759.84;4835532;28;119455;-86
2022/04/08 10:48:23;;;;;;;5.47;1.20;;;;;;;10.05;65.46;98751.47;4847509;28;120160;-85
2022/04/08 10:51:02;;;;;;;5.28;1.40;;;;;;;10.20;65.80;98754.00;4817191;28;119985;-85
2022/04/08 10:53:32;;;;;;;7.63;1.42;;;;;;;10.30;64.85;98761.53;4819729;28;122313;-86
2022/04/08 10:56:12;;;;;;;4.53;1.50;;;;;;;10.41;63.55;98752.59;4816709;28;122831;-85
2022/04/08 10:58:46;;;;;;;6.38;1.50;;;;;;;10.55;63.89;98739.91;4836028;28;119804;-84
2022/04/08 11:01:25;;;;;;;5.60;1.40;;;;;;;10.70;63.84;98748.66;4819469;28;123083;-85
2022/04/08 11:04:02;;;;;;;7.93;2.03;;;;;;;10.80;62.93;98760.84;4819112;28;121887;-85
2022/04/08 11:06:36;;;;;;;6.25;1.80;;;;;;;10.86;62.71;98758.84;4854035;28;121182;-85
2022/04/08 11:09:09;;;;;;;8.50;2.50;;;;;;;10.83;62.94;98753.63;4837521;28;119911;-85
2022/04/08 11:11:37;;;;;;;6.30;1.67;;;;;;;10.82;62.09;98752.88;4832403;28;120104;-85
2022/04/08 11:14:04;;;;;;;6.60;1.85;;;;;;;10.82;62.96;98741.91;4818750;28;121718;-85
2022/04/08 11:16:35;;;;;;;6.82;1.80;;;;;;;10.86;64.94;98741.66;4848194;28;121464;-84
2022/04/08 11:19:05;;;;;;;5.07;1.60;;;;;;;10.92;62.61;98745.91;4833457;28;119628;-85
2022/04/08 11:21:32;;;;;;;6.57;1.70;;;;;;;10.94;63.03;98748.91;4832897;28;120469;-85
2022/04/08 11:24:00;;;;;;;10.57;2.03;;;;;;;11.01;63.81;98745.66;4833236;28;122673;-84